sensor_id;sensor_type;location;lat;lon;timestamp;P1;durP1;ratioP1;P2;durP2;ratioP2
52776;SDS011;38656;54.260;20.822;2023-04-23T00:00:16;90.90;;;45.30;;
52776;SDS011;38656;54.260;20.822;2023-04-23T00:02:43;83.75;;;46.35;;
52776;SDS011;38656;54.260;20.822;2023-04-23T00:05:13;67.97;;;41.70;;
52776;SDS011;38656;54.260;20.822;2023-04-23T00:07:43;60.75;;;41.08;;
52776;SDS011;38656;54.260;20.822;2023-04-23T00:10:10;57.10;;;39.10;;
52776;SDS011;38656;54.260;20.822;2023-04-23T00:12:36;50.72;;;34.17;;
52776;SDS011;38656;54.260;20.822;2023-04-23T00:15:04;47.13;;;29.05;;
52776;SDS011;38656;54.260;20.822;2023-04-23T00:17:31;44.65;;;27.65;;
52776;SDS011;38656;54.260;20.822;2023-04-23T00:19:57;46.80;;;29.58;;
52776;SDS011;38656;54.260;20.822;2023-04-23T00:22:23;43.90;;;30.88;;
52776;SDS011;38656;54.260;20.822;2023-04-23T00:24:49;56.75;;;29.13;;
52776;SDS011;38656;54.260;20.822;2023-04-23T00:27:15;52.08;;;30.45;;
52776;SDS011;38656;54.260;20.822;2023-04-23T00:29:42;41.80;;;28.40;;
52776;SDS011;38656;54.260;20.822;2023-04-23T00:32:10;39.25;;;27.40;;
52776;SDS011;38656;54.260;20.822;2023-04-23T00:34:36;40.75;;;26.30;;
52776;SDS011;38656;54.260;20.822;2023-04-23T00:37:02;38.92;;;25.17;;
52776;SDS011;38656;54.260;20.822;2023-04-23T00:39:30;32.15;;;24.08;;
52776;SDS011;38656;54.260;20.822;2023-04-23T00:41:57;31.58;;;21.70;;
52776;SDS011;38656;54.260;20.822;2023-04-23T00:44:31;25.30;;;20.02;;
52776;SDS011;38656;54.260;20.822;2023-04-23T00:46:57;25.02;;;17.95;;
52776;SDS011;38656;54.260;20.822;2023-04-23T00:49:24;22.80;;;16.58;;
52776;SDS011;38656;54.260;20.822;2023-04-23T00:51:51;23.40;;;16.55;;
52776;SDS011;38656;54.260;20.822;2023-04-23T00:54:17;23.25;;;16.40;;
52776;SDS011;38656;54.260;20.822;2023-04-23T00:56:43;27.88;;;20.05;;
52776;SDS011;38656;54.260;20.822;2023-04-23T00:59:09;24.48;;;18.35;;
52776;SDS011;38656;54.260;20.822;2023-04-23T01:01:35;27.40;;;18.58;;
52776;SDS011;38656;54.260;20.822;2023-04-23T01:04:02;29.70;;;21.48;;
52776;SDS011;38656;54.260;20.822;2023-04-23T01:06:28;31.83;;;20.98;;
52776;SDS011;38656;54.260;20.822;2023-04-23T01:08:55;29.95;;;21.83;;
52776;SDS011;38656;54.260;20.822;2023-04-23T01:11:21;29.17;;;21.38;;
52776;SDS011;38656;54.260;20.822;2023-04-23T01:13:48;27.33;;;20.85;;
52776;SDS011;38656;54.260;20.822;2023-04-23T01:16:15;27.88;;;22.85;;
52776;SDS011;38656;54.260;20.822;2023-04-23T01:18:41;45.08;;;26.98;;
52776;SDS011;38656;54.260;20.822;2023-04-23T01:21:09;32.55;;;25.25;;
52776;SDS011;38656;54.260;20.822;2023-04-23T01:23:36;37.30;;;25.77;;
52776;SDS011;38656;54.260;20.822;2023-04-23T01:26:03;44.83;;;28.48;;
52776;SDS011;38656;54.260;20.822;2023-04-23T01:28:29;35.78;;;27.63;;
52776;SDS011;38656;54.260;20.822;2023-04-23T01:30:56;39.45;;;28.13;;
52776;SDS011;38656;54.260;20.822;2023-04-23T01:33:23;45.22;;;26.92;;
52776;SDS011;38656;54.260;20.822;2023-04-23T01:35:50;48.28;;;25.58;;
52776;SDS011;38656;54.260;20.822;2023-04-23T01:38:17;39.05;;;25.70;;
52776;SDS011;38656;54.260;20.822;2023-04-23T01:40:46;35.55;;;24.25;;
52776;SDS011;38656;54.260;20.822;2023-04-23T01:43:12;32.75;;;23.08;;
52776;SDS011;38656;54.260;20.822;2023-04-23T01:45:39;33.63;;;22.27;;
52776;SDS011;38656;54.260;20.822;2023-04-23T01:48:06;40.13;;;22.75;;
52776;SDS011;38656;54.260;20.822;2023-04-23T01:50:32;33.85;;;23.52;;
52776;SDS011;38656;54.260;20.822;2023-04-23T01:52:58;34.47;;;23.85;;
52776;SDS011;38656;54.260;20.822;2023-04-23T01:55:24;44.40;;;25.50;;
52776;SDS011;38656;54.260;20.822;2023-04-23T01:57:51;47.70;;;28.38;;
52776;SDS011;38656;54.260;20.822;2023-04-23T02:00:17;43.97;;;26.00;;
52776;SDS011;38656;54.260;20.822;2023-04-23T02:02:44;40.38;;;24.88;;
52776;SDS011;38656;54.260;20.822;2023-04-23T02:05:12;37.53;;;25.70;;
52776;SDS011;38656;54.260;20.822;2023-04-23T02:07:40;39.00;;;25.33;;
52776;SDS011;38656;54.260;20.822;2023-04-23T02:10:08;40.25;;;22.73;;
52776;SDS011;38656;54.260;20.822;2023-04-23T02:12:35;32.22;;;21.58;;
52776;SDS011;38656;54.260;20.822;2023-04-23T02:15:03;35.97;;;22.48;;
52776;SDS011;38656;54.260;20.822;2023-04-23T02:17:30;37.22;;;21.25;;
52776;SDS011;38656;54.260;20.822;2023-04-23T02:19:57;36.90;;;23.13;;
52776;SDS011;38656;54.260;20.822;2023-04-23T02:22:23;46.85;;;21.63;;
52776;SDS011;38656;54.260;20.822;2023-04-23T02:24:53;33.25;;;22.35;;
52776;SDS011;38656;54.260;20.822;2023-04-23T02:27:20;39.17;;;25.35;;
52776;SDS011;38656;54.260;20.822;2023-04-23T02:29:47;36.15;;;22.23;;
52776;SDS011;38656;54.260;20.822;2023-04-23T02:32:14;33.92;;;22.20;;
52776;SDS011;38656;54.260;20.822;2023-04-23T02:34:40;38.05;;;23.83;;
52776;SDS011;38656;54.260;20.822;2023-04-23T02:37:06;37.38;;;23.05;;
52776;SDS011;38656;54.260;20.822;2023-04-23T02:39:33;47.53;;;23.27;;
52776;SDS011;38656;54.260;20.822;2023-04-23T02:41:59;57.45;;;26.02;;
52776;SDS011;38656;54.260;20.822;2023-04-23T02:44:25;39.85;;;24.13;;
52776;SDS011;38656;54.260;20.822;2023-04-23T02:46:52;38.28;;;22.90;;
52776;SDS011;38656;54.260;20.822;2023-04-23T02:49:18;37.03;;;22.73;;
52776;SDS011;38656;54.260;20.822;2023-04-23T02:51:44;31.00;;;22.98;;
52776;SDS011;38656;54.260;20.822;2023-04-23T02:54:11;43.63;;;23.10;;
52776;SDS011;38656;54.260;20.822;2023-04-23T02:56:38;37.92;;;22.83;;
52776;SDS011;38656;54.260;20.822;2023-04-23T02:59:04;39.28;;;23.48;;
52776;SDS011;38656;54.260;20.822;2023-04-23T03:01:31;35.67;;;22.38;;
52776;SDS011;38656;54.260;20.822;2023-04-23T03:03:58;37.17;;;22.52;;
52776;SDS011;38656;54.260;20.822;2023-04-23T03:06:25;36.60;;;22.27;;
52776;SDS011;38656;54.260;20.822;2023-04-23T03:08:51;32.08;;;21.25;;
52776;SDS011;38656;54.260;20.822;2023-04-23T03:11:17;32.22;;;21.58;;
52776;SDS011;38656;54.260;20.822;2023-04-23T03:13:43;37.80;;;21.27;;
52776;SDS011;38656;54.260;20.822;2023-04-23T03:16:10;29.02;;;19.58;;
52776;SDS011;38656;54.260;20.822;2023-04-23T03:18:36;31.48;;;20.15;;
52776;SDS011;38656;54.260;20.822;2023-04-23T03:21:02;29.63;;;19.70;;
52776;SDS011;38656;54.260;20.822;2023-04-23T03:23:28;26.80;;;19.83;;
52776;SDS011;38656;54.260;20.822;2023-04-23T03:25:55;29.10;;;20.42;;
52776;SDS011;38656;54.260;20.822;2023-04-23T03:28:21;27.38;;;19.30;;
52776;SDS011;38656;54.260;20.822;2023-04-23T03:30:47;31.75;;;20.33;;
52776;SDS011;38656;54.260;20.822;2023-04-23T03:33:14;32.10;;;20.50;;
52776;SDS011;38656;54.260;20.822;2023-04-23T03:35:40;30.02;;;21.05;;
52776;SDS011;38656;54.260;20.822;2023-04-23T03:38:06;34.80;;;21.10;;
52776;SDS011;38656;54.260;20.822;2023-04-23T03:40:33;31.30;;;21.85;;
52776;SDS011;38656;54.260;20.822;2023-04-23T03:42:59;32.15;;;20.75;;
52776;SDS011;38656;54.260;20.822;2023-04-23T03:45:25;32.60;;;21.35;;
52776;SDS011;38656;54.260;20.822;2023-04-23T03:47:52;30.05;;;21.67;;
52776;SDS011;38656;54.260;20.822;2023-04-23T03:50:18;28.95;;;20.70;;
52776;SDS011;38656;54.260;20.822;2023-04-23T03:52:44;31.17;;;19.83;;
52776;SDS011;38656;54.260;20.822;2023-04-23T03:55:10;29.48;;;18.92;;
52776;SDS011;38656;54.260;20.822;2023-04-23T03:57:37;34.70;;;19.20;;
52776;SDS011;38656;54.260;20.822;2023-04-23T04:00:03;29.98;;;19.98;;
52776;SDS011;38656;54.260;20.822;2023-04-23T04:02:36;35.58;;;20.55;;
52776;SDS011;38656;54.260;20.822;2023-04-23T04:05:04;32.83;;;20.63;;
52776;SDS011;38656;54.260;20.822;2023-04-23T04:07:30;32.25;;;22.35;;
52776;SDS011;38656;54.260;20.822;2023-04-23T04:09:57;22.45;;;19.83;;
52776;SDS011;38656;54.260;20.822;2023-04-23T04:12:26;24.83;;;19.08;;
52776;SDS011;38656;54.260;20.822;2023-04-23T04:14:53;28.33;;;19.08;;
52776;SDS011;38656;54.260;20.822;2023-04-23T04:17:19;29.38;;;20.98;;
52776;SDS011;38656;54.260;20.822;2023-04-23T04:19:45;32.97;;;20.40;;
52776;SDS011;38656;54.260;20.822;2023-04-23T04:22:12;30.60;;;20.85;;
52776;SDS011;38656;54.260;20.822;2023-04-23T04:24:38;38.28;;;22.02;;
52776;SDS011;38656;54.260;20.822;2023-04-23T04:27:06;24.05;;;19.55;;
52776;SDS011;38656;54.260;20.822;2023-04-23T04:29:33;24.05;;;18.98;;
52776;SDS011;38656;54.260;20.822;2023-04-23T04:31:59;25.67;;;19.05;;
52776;SDS011;38656;54.260;20.822;2023-04-23T04:34:26;27.85;;;22.15;;
52776;SDS011;38656;54.260;20.822;2023-04-23T04:36:53;30.55;;;23.48;;
52776;SDS011;38656;54.260;20.822;2023-04-23T04:39:19;30.58;;;24.48;;
52776;SDS011;38656;54.260;20.822;2023-04-23T04:41:45;39.58;;;29.45;;
52776;SDS011;38656;54.260;20.822;2023-04-23T04:44:12;42.72;;;30.83;;
52776;SDS011;38656;54.260;20.822;2023-04-23T04:46:40;46.70;;;29.77;;
52776;SDS011;38656;54.260;20.822;2023-04-23T04:49:07;42.90;;;28.58;;
52776;SDS011;38656;54.260;20.822;2023-04-23T04:51:37;39.47;;;29.73;;
52776;SDS011;38656;54.260;20.822;2023-04-23T04:54:05;48.85;;;28.77;;
52776;SDS011;38656;54.260;20.822;2023-04-23T04:56:34;40.45;;;26.10;;
52776;SDS011;38656;54.260;20.822;2023-04-23T04:59:01;43.40;;;26.15;;
52776;SDS011;38656;54.260;20.822;2023-04-23T05:01:28;46.88;;;30.50;;
52776;SDS011;38656;54.260;20.822;2023-04-23T05:03:55;57.90;;;32.03;;
52776;SDS011;38656;54.260;20.822;2023-04-23T05:06:21;49.20;;;35.05;;
52776;SDS011;38656;54.260;20.822;2023-04-23T05:08:47;50.95;;;33.35;;
52776;SDS011;38656;54.260;20.822;2023-04-23T05:11:14;40.22;;;27.02;;
52776;SDS011;38656;54.260;20.822;2023-04-23T05:13:42;35.55;;;25.45;;
52776;SDS011;38656;54.260;20.822;2023-04-23T05:16:09;28.85;;;18.83;;
52776;SDS011;38656;54.260;20.822;2023-04-23T05:18:36;18.98;;;16.40;;
52776;SDS011;38656;54.260;20.822;2023-04-23T05:21:03;20.08;;;15.52;;
52776;SDS011;38656;54.260;20.822;2023-04-23T05:23:30;27.45;;;15.18;;
52776;SDS011;38656;54.260;20.822;2023-04-23T05:25:57;21.02;;;16.60;;
52776;SDS011;38656;54.260;20.822;2023-04-23T05:28:23;23.75;;;16.70;;
52776;SDS011;38656;54.260;20.822;2023-04-23T05:30:50;21.33;;;17.77;;
52776;SDS011;38656;54.260;20.822;2023-04-23T05:33:16;20.35;;;16.42;;
52776;SDS011;38656;54.260;20.822;2023-04-23T05:35:43;26.38;;;18.88;;
52776;SDS011;38656;54.260;20.822;2023-04-23T05:38:09;40.28;;;29.52;;
52776;SDS011;38656;54.260;20.822;2023-04-23T05:40:35;37.45;;;27.75;;
52776;SDS011;38656;54.260;20.822;2023-04-23T05:43:01;17.70;;;15.30;;
52776;SDS011;38656;54.260;20.822;2023-04-23T05:45:28;19.48;;;14.30;;
52776;SDS011;38656;54.260;20.822;2023-04-23T05:47:54;17.40;;;13.73;;
52776;SDS011;38656;54.260;20.822;2023-04-23T05:50:20;14.18;;;12.10;;
52776;SDS011;38656;54.260;20.822;2023-04-23T05:52:47;18.35;;;11.68;;
52776;SDS011;38656;54.260;20.822;2023-04-23T05:55:13;15.30;;;12.02;;
52776;SDS011;38656;54.260;20.822;2023-04-23T05:57:40;16.30;;;11.48;;
52776;SDS011;38656;54.260;20.822;2023-04-23T06:00:06;11.65;;;10.45;;
52776;SDS011;38656;54.260;20.822;2023-04-23T06:02:36;12.35;;;9.88;;
52776;SDS011;38656;54.260;20.822;2023-04-23T06:05:03;12.40;;;10.20;;
52776;SDS011;38656;54.260;20.822;2023-04-23T06:07:31;14.55;;;9.93;;
52776;SDS011;38656;54.260;20.822;2023-04-23T06:09:57;10.63;;;9.18;;
52776;SDS011;38656;54.260;20.822;2023-04-23T06:12:24;14.95;;;9.18;;
52776;SDS011;38656;54.260;20.822;2023-04-23T06:14:51;11.25;;;8.13;;
52776;SDS011;38656;54.260;20.822;2023-04-23T06:17:17;8.98;;;7.20;;
52776;SDS011;38656;54.260;20.822;2023-04-23T06:19:44;8.85;;;7.40;;
52776;SDS011;38656;54.260;20.822;2023-04-23T06:22:10;12.23;;;8.60;;
52776;SDS011;38656;54.260;20.822;2023-04-23T06:24:36;15.63;;;8.27;;
52776;SDS011;38656;54.260;20.822;2023-04-23T06:27:02;9.20;;;7.57;;
52776;SDS011;38656;54.260;20.822;2023-04-23T06:29:29;8.02;;;6.60;;
52776;SDS011;38656;54.260;20.822;2023-04-23T06:31:55;8.30;;;7.40;;
52776;SDS011;38656;54.260;20.822;2023-04-23T06:34:25;15.48;;;10.00;;
52776;SDS011;38656;54.260;20.822;2023-04-23T06:36:51;15.07;;;8.45;;
52776;SDS011;38656;54.260;20.822;2023-04-23T06:39:18;18.35;;;9.55;;
52776;SDS011;38656;54.260;20.822;2023-04-23T06:41:44;32.55;;;19.48;;
52776;SDS011;38656;54.260;20.822;2023-04-23T06:44:11;20.85;;;14.35;;
52776;SDS011;38656;54.260;20.822;2023-04-23T06:46:37;33.45;;;18.42;;
52776;SDS011;38656;54.260;20.822;2023-04-23T06:49:03;13.90;;;8.50;;
52776;SDS011;38656;54.260;20.822;2023-04-23T06:51:29;21.83;;;12.18;;
52776;SDS011;38656;54.260;20.822;2023-04-23T06:53:56;7.68;;;5.28;;
52776;SDS011;38656;54.260;20.822;2023-04-23T06:56:23;10.88;;;8.82;;
52776;SDS011;38656;54.260;20.822;2023-04-23T06:58:50;10.43;;;5.68;;
52776;SDS011;38656;54.260;20.822;2023-04-23T07:01:17;24.60;;;14.20;;
52776;SDS011;38656;54.260;20.822;2023-04-23T07:03:43;19.40;;;9.85;;
52776;SDS011;38656;54.260;20.822;2023-04-23T07:06:13;6.22;;;3.95;;
52776;SDS011;38656;54.260;20.822;2023-04-23T07:08:40;5.07;;;3.80;;
52776;SDS011;38656;54.260;20.822;2023-04-23T07:11:07;4.70;;;3.80;;
52776;SDS011;38656;54.260;20.822;2023-04-23T07:13:34;6.30;;;3.92;;
52776;SDS011;38656;54.260;20.822;2023-04-23T07:16:01;4.60;;;3.35;;
52776;SDS011;38656;54.260;20.822;2023-04-23T07:18:27;4.60;;;3.80;;
52776;SDS011;38656;54.260;20.822;2023-04-23T07:20:53;5.53;;;4.03;;
52776;SDS011;38656;54.260;20.822;2023-04-23T07:23:20;5.70;;;3.42;;
52776;SDS011;38656;54.260;20.822;2023-04-23T07:25:46;4.47;;;3.08;;
52776;SDS011;38656;54.260;20.822;2023-04-23T07:28:12;6.28;;;3.13;;
52776;SDS011;38656;54.260;20.822;2023-04-23T07:30:38;7.32;;;3.20;;
52776;SDS011;38656;54.260;20.822;2023-04-23T07:33:04;9.02;;;3.67;;
52776;SDS011;38656;54.260;20.822;2023-04-23T07:35:31;4.93;;;3.53;;
52776;SDS011;38656;54.260;20.822;2023-04-23T07:37:57;6.57;;;3.97;;
52776;SDS011;38656;54.260;20.822;2023-04-23T07:40:23;3.40;;;3.10;;
52776;SDS011;38656;54.260;20.822;2023-04-23T07:42:50;8.73;;;3.83;;
52776;SDS011;38656;54.260;20.822;2023-04-23T07:45:19;6.35;;;3.58;;
52776;SDS011;38656;54.260;20.822;2023-04-23T07:47:46;8.90;;;3.80;;
52776;SDS011;38656;54.260;20.822;2023-04-23T07:50:13;7.22;;;3.22;;
52776;SDS011;38656;54.260;20.822;2023-04-23T07:52:40;6.50;;;3.28;;
52776;SDS011;38656;54.260;20.822;2023-04-23T07:55:06;4.55;;;3.70;;
52776;SDS011;38656;54.260;20.822;2023-04-23T07:57:33;5.82;;;4.28;;
52776;SDS011;38656;54.260;20.822;2023-04-23T07:59:59;4.82;;;3.47;;
52776;SDS011;38656;54.260;20.822;2023-04-23T08:02:26;5.53;;;3.53;;
52776;SDS011;38656;54.260;20.822;2023-04-23T08:04:52;3.95;;;3.45;;
52776;SDS011;38656;54.260;20.822;2023-04-23T08:07:18;6.30;;;3.42;;
52776;SDS011;38656;54.260;20.822;2023-04-23T08:09:45;5.20;;;3.58;;
52776;SDS011;38656;54.260;20.822;2023-04-23T08:12:11;5.15;;;3.67;;
52776;SDS011;38656;54.260;20.822;2023-04-23T08:14:37;8.52;;;3.67;;
52776;SDS011;38656;54.260;20.822;2023-04-23T08:17:03;5.22;;;3.38;;
52776;SDS011;38656;54.260;20.822;2023-04-23T08:19:29;7.05;;;3.40;;
52776;SDS011;38656;54.260;20.822;2023-04-23T08:21:57;4.38;;;3.28;;
52776;SDS011;38656;54.260;20.822;2023-04-23T08:24:24;4.80;;;3.42;;
52776;SDS011;38656;54.260;20.822;2023-04-23T08:26:51;4.95;;;3.33;;
52776;SDS011;38656;54.260;20.822;2023-04-23T08:29:17;14.20;;;3.33;;
52776;SDS011;38656;54.260;20.822;2023-04-23T08:31:43;5.15;;;3.78;;
52776;SDS011;38656;54.260;20.822;2023-04-23T08:34:10;6.95;;;3.38;;
52776;SDS011;38656;54.260;20.822;2023-04-23T08:36:36;5.60;;;3.50;;
52776;SDS011;38656;54.260;20.822;2023-04-23T08:39:02;6.78;;;2.70;;
52776;SDS011;38656;54.260;20.822;2023-04-23T08:41:39;4.10;;;3.33;;
52776;SDS011;38656;54.260;20.822;2023-04-23T08:44:16;3.60;;;3.30;;
52776;SDS011;38656;54.260;20.822;2023-04-23T08:46:43;4.47;;;2.88;;
52776;SDS011;38656;54.260;20.822;2023-04-23T08:49:17;12.27;;;3.63;;
52776;SDS011;38656;54.260;20.822;2023-04-23T08:51:53;7.03;;;3.75;;
52776;SDS011;38656;54.260;20.822;2023-04-23T08:54:25;7.45;;;2.90;;
52776;SDS011;38656;54.260;20.822;2023-04-23T08:56:55;7.88;;;3.38;;
52776;SDS011;38656;54.260;20.822;2023-04-23T08:59:26;7.63;;;3.42;;
52776;SDS011;38656;54.260;20.822;2023-04-23T09:01:58;3.58;;;3.22;;
52776;SDS011;38656;54.260;20.822;2023-04-23T09:04:25;6.80;;;3.00;;
52776;SDS011;38656;54.260;20.822;2023-04-23T09:06:53;7.75;;;3.72;;
52776;SDS011;38656;54.260;20.822;2023-04-23T09:09:20;5.43;;;3.05;;
52776;SDS011;38656;54.260;20.822;2023-04-23T09:11:48;4.70;;;3.47;;
52776;SDS011;38656;54.260;20.822;2023-04-23T09:14:15;6.70;;;3.47;;
52776;SDS011;38656;54.260;20.822;2023-04-23T09:16:41;7.22;;;3.67;;
52776;SDS011;38656;54.260;20.822;2023-04-23T09:19:08;4.03;;;3.35;;
52776;SDS011;38656;54.260;20.822;2023-04-23T09:21:37;3.13;;;2.85;;
52776;SDS011;38656;54.260;20.822;2023-04-23T09:24:05;5.53;;;3.55;;
52776;SDS011;38656;54.260;20.822;2023-04-23T09:26:35;14.23;;;4.65;;
52776;SDS011;38656;54.260;20.822;2023-04-23T09:29:21;7.20;;;4.22;;
52776;SDS011;38656;54.260;20.822;2023-04-23T09:31:48;10.93;;;4.55;;
52776;SDS011;38656;54.260;20.822;2023-04-23T09:34:17;4.47;;;3.50;;
52776;SDS011;38656;54.260;20.822;2023-04-23T09:36:45;6.38;;;3.72;;
52776;SDS011;38656;54.260;20.822;2023-04-23T09:39:15;10.18;;;4.13;;
52776;SDS011;38656;54.260;20.822;2023-04-23T09:41:43;6.82;;;3.17;;
52776;SDS011;38656;54.260;20.822;2023-04-23T09:44:10;6.60;;;3.55;;
52776;SDS011;38656;54.260;20.822;2023-04-23T09:46:42;8.45;;;3.42;;
52776;SDS011;38656;54.260;20.822;2023-04-23T09:49:09;9.05;;;4.00;;
52776;SDS011;38656;54.260;20.822;2023-04-23T09:51:39;4.15;;;3.60;;
52776;SDS011;38656;54.260;20.822;2023-04-23T09:56:50;8.20;;;3.67;;
52776;SDS011;38656;54.260;20.822;2023-04-23T09:59:27;4.35;;;3.13;;
52776;SDS011;38656;54.260;20.822;2023-04-23T10:01:54;3.45;;;3.15;;
52776;SDS011;38656;54.260;20.822;2023-04-23T10:04:25;5.75;;;3.70;;
52776;SDS011;38656;54.260;20.822;2023-04-23T10:06:59;4.75;;;3.15;;
52776;SDS011;38656;54.260;20.822;2023-04-23T10:09:27;4.97;;;3.10;;
52776;SDS011;38656;54.260;20.822;2023-04-23T10:11:55;4.78;;;3.20;;
52776;SDS011;38656;54.260;20.822;2023-04-23T10:14:28;5.45;;;3.92;;
52776;SDS011;38656;54.260;20.822;2023-04-23T10:16:58;6.57;;;3.33;;
52776;SDS011;38656;54.260;20.822;2023-04-23T10:19:26;3.78;;;3.30;;
52776;SDS011;38656;54.260;20.822;2023-04-23T10:22:03;4.18;;;3.03;;
52776;SDS011;38656;54.260;20.822;2023-04-23T10:24:33;7.28;;;3.25;;
52776;SDS011;38656;54.260;20.822;2023-04-23T10:27:02;6.07;;;3.35;;
52776;SDS011;38656;54.260;20.822;2023-04-23T10:29:31;4.50;;;3.47;;
52776;SDS011;38656;54.260;20.822;2023-04-23T10:32:02;4.45;;;2.83;;
52776;SDS011;38656;54.260;20.822;2023-04-23T10:34:33;4.15;;;3.25;;
52776;SDS011;38656;54.260;20.822;2023-04-23T10:37:00;3.60;;;3.30;;
52776;SDS011;38656;54.260;20.822;2023-04-23T10:39:28;8.07;;;3.63;;
52776;SDS011;38656;54.260;20.822;2023-04-23T10:41:57;6.00;;;3.10;;
52776;SDS011;38656;54.260;20.822;2023-04-23T10:44:30;3.22;;;2.92;;
52776;SDS011;38656;54.260;20.822;2023-04-23T10:47:10;7.38;;;3.67;;
52776;SDS011;38656;54.260;20.822;2023-04-23T10:49:39;6.90;;;3.30;;
52776;SDS011;38656;54.260;20.822;2023-04-23T10:52:09;13.15;;;3.58;;
52776;SDS011;38656;54.260;20.822;2023-04-23T10:54:47;3.40;;;3.10;;
52776;SDS011;38656;54.260;20.822;2023-04-23T10:57:14;6.78;;;3.60;;
52776;SDS011;38656;54.260;20.822;2023-04-23T10:59:50;4.82;;;3.40;;
52776;SDS011;38656;54.260;20.822;2023-04-23T11:02:18;5.80;;;4.32;;
52776;SDS011;38656;54.260;20.822;2023-04-23T11:04:45;8.23;;;3.28;;
52776;SDS011;38656;54.260;20.822;2023-04-23T11:07:17;4.72;;;3.30;;
52776;SDS011;38656;54.260;20.822;2023-04-23T11:09:47;4.05;;;3.53;;
52776;SDS011;38656;54.260;20.822;2023-04-23T11:14:49;5.63;;;3.05;;
52776;SDS011;38656;54.260;20.822;2023-04-23T11:17:16;6.25;;;3.78;;
52776;SDS011;38656;54.260;20.822;2023-04-23T11:20:06;14.30;;;3.10;;
52776;SDS011;38656;54.260;20.822;2023-04-23T11:22:38;8.40;;;3.35;;
52776;SDS011;38656;54.260;20.822;2023-04-23T11:25:25;3.78;;;3.33;;
52776;SDS011;38656;54.260;20.822;2023-04-23T11:27:53;3.72;;;3.28;;
52776;SDS011;38656;54.260;20.822;2023-04-23T11:30:23;8.98;;;3.75;;
52776;SDS011;38656;54.260;20.822;2023-04-23T11:32:51;10.38;;;3.42;;
52776;SDS011;38656;54.260;20.822;2023-04-23T11:35:24;5.20;;;3.00;;
52776;SDS011;38656;54.260;20.822;2023-04-23T11:37:52;4.03;;;3.63;;
52776;SDS011;38656;54.260;20.822;2023-04-23T11:40:19;3.05;;;2.60;;
52776;SDS011;38656;54.260;20.822;2023-04-23T11:42:50;4.68;;;3.40;;
52776;SDS011;38656;54.260;20.822;2023-04-23T11:47:50;6.15;;;3.55;;
52776;SDS011;38656;54.260;20.822;2023-04-23T11:50:24;5.78;;;3.90;;
52776;SDS011;38656;54.260;20.822;2023-04-23T11:52:53;5.43;;;3.03;;
52776;SDS011;38656;54.260;20.822;2023-04-23T11:55:20;3.95;;;3.60;;
52776;SDS011;38656;54.260;20.822;2023-04-23T11:57:48;6.80;;;4.10;;
52776;SDS011;38656;54.260;20.822;2023-04-23T12:03:16;3.17;;;2.75;;
52776;SDS011;38656;54.260;20.822;2023-04-23T12:05:40;6.03;;;3.85;;
52776;SDS011;38656;54.260;20.822;2023-04-23T12:08:10;3.08;;;2.85;;
52776;SDS011;38656;54.260;20.822;2023-04-23T12:13:17;4.07;;;2.97;;
52776;SDS011;38656;54.260;20.822;2023-04-23T12:15:53;6.22;;;3.03;;
52776;SDS011;38656;54.260;20.822;2023-04-23T12:18:27;4.68;;;3.90;;
52776;SDS011;38656;54.260;20.822;2023-04-23T12:20:54;3.45;;;3.05;;
52776;SDS011;38656;54.260;20.822;2023-04-23T12:23:25;4.28;;;3.30;;
52776;SDS011;38656;54.260;20.822;2023-04-23T12:25:55;3.50;;;3.22;;
52776;SDS011;38656;54.260;20.822;2023-04-23T12:28:22;5.38;;;3.20;;
52776;SDS011;38656;54.260;20.822;2023-04-23T12:30:49;4.88;;;2.95;;
52776;SDS011;38656;54.260;20.822;2023-04-23T12:33:16;4.28;;;3.40;;
52776;SDS011;38656;54.260;20.822;2023-04-23T12:38:26;6.35;;;2.85;;
52776;SDS011;38656;54.260;20.822;2023-04-23T12:40:54;5.65;;;3.42;;
52776;SDS011;38656;54.260;20.822;2023-04-23T12:43:21;7.88;;;3.65;;
52776;SDS011;38656;54.260;20.822;2023-04-23T12:45:48;3.88;;;3.40;;
52776;SDS011;38656;54.260;20.822;2023-04-23T12:48:16;6.22;;;3.90;;
52776;SDS011;38656;54.260;20.822;2023-04-23T12:50:45;6.90;;;3.58;;
52776;SDS011;38656;54.260;20.822;2023-04-23T12:53:12;3.65;;;3.25;;
52776;SDS011;38656;54.260;20.822;2023-04-23T12:55:38;5.22;;;3.70;;
52776;SDS011;38656;54.260;20.822;2023-04-23T12:58:07;4.55;;;3.47;;
52776;SDS011;38656;54.260;20.822;2023-04-23T13:00:33;4.72;;;3.80;;
52776;SDS011;38656;54.260;20.822;2023-04-23T13:03:00;5.65;;;3.63;;
52776;SDS011;38656;54.260;20.822;2023-04-23T13:05:26;5.40;;;3.50;;
52776;SDS011;38656;54.260;20.822;2023-04-23T13:07:52;7.13;;;3.13;;
52776;SDS011;38656;54.260;20.822;2023-04-23T13:10:19;7.18;;;3.50;;
52776;SDS011;38656;54.260;20.822;2023-04-23T13:12:45;4.38;;;3.97;;
52776;SDS011;38656;54.260;20.822;2023-04-23T13:15:11;6.65;;;3.65;;
52776;SDS011;38656;54.260;20.822;2023-04-23T13:17:37;2.75;;;2.53;;
52776;SDS011;38656;54.260;20.822;2023-04-23T13:20:04;7.93;;;4.05;;
52776;SDS011;38656;54.260;20.822;2023-04-23T13:22:31;6.82;;;3.70;;
52776;SDS011;38656;54.260;20.822;2023-04-23T13:24:57;4.13;;;3.55;;
52776;SDS011;38656;54.260;20.822;2023-04-23T13:27:25;4.53;;;3.60;;
52776;SDS011;38656;54.260;20.822;2023-04-23T13:29:52;5.93;;;3.55;;
52776;SDS011;38656;54.260;20.822;2023-04-23T13:32:19;6.22;;;3.65;;
52776;SDS011;38656;54.260;20.822;2023-04-23T13:34:46;9.88;;;3.63;;
52776;SDS011;38656;54.260;20.822;2023-04-23T13:37:12;7.13;;;3.80;;
52776;SDS011;38656;54.260;20.822;2023-04-23T13:39:38;5.95;;;3.30;;
52776;SDS011;38656;54.260;20.822;2023-04-23T13:42:05;4.97;;;3.67;;
52776;SDS011;38656;54.260;20.822;2023-04-23T13:44:31;5.38;;;3.55;;
52776;SDS011;38656;54.260;20.822;2023-04-23T13:46:57;8.68;;;4.38;;
52776;SDS011;38656;54.260;20.822;2023-04-23T13:49:24;3.97;;;3.17;;
52776;SDS011;38656;54.260;20.822;2023-04-23T13:51:51;5.38;;;3.88;;
52776;SDS011;38656;54.260;20.822;2023-04-23T13:54:24;3.67;;;3.00;;
52776;SDS011;38656;54.260;20.822;2023-04-23T13:56:54;3.65;;;3.30;;
52776;SDS011;38656;54.260;20.822;2023-04-23T13:59:20;6.57;;;3.88;;
52776;SDS011;38656;54.260;20.822;2023-04-23T14:01:48;4.68;;;3.45;;
52776;SDS011;38656;54.260;20.822;2023-04-23T14:04:14;9.77;;;3.58;;
52776;SDS011;38656;54.260;20.822;2023-04-23T14:06:42;3.85;;;3.25;;
52776;SDS011;38656;54.260;20.822;2023-04-23T14:09:09;3.92;;;3.40;;
52776;SDS011;38656;54.260;20.822;2023-04-23T14:11:36;8.02;;;3.58;;
52776;SDS011;38656;54.260;20.822;2023-04-23T14:14:04;6.63;;;3.20;;
52776;SDS011;38656;54.260;20.822;2023-04-23T14:16:31;7.07;;;3.80;;
52776;SDS011;38656;54.260;20.822;2023-04-23T14:18:58;4.07;;;2.90;;
52776;SDS011;38656;54.260;20.822;2023-04-23T14:21:24;5.13;;;3.58;;
52776;SDS011;38656;54.260;20.822;2023-04-23T14:28:57;5.07;;;3.38;;
52776;SDS011;38656;54.260;20.822;2023-04-23T14:31:32;6.75;;;3.90;;
52776;SDS011;38656;54.260;20.822;2023-04-23T14:33:59;4.45;;;3.00;;
52776;SDS011;38656;54.260;20.822;2023-04-23T14:36:25;4.75;;;3.45;;
52776;SDS011;38656;54.260;20.822;2023-04-23T14:38:52;4.63;;;3.50;;
52776;SDS011;38656;54.260;20.822;2023-04-23T14:41:18;4.82;;;3.38;;
52776;SDS011;38656;54.260;20.822;2023-04-23T14:43:44;3.97;;;3.40;;
52776;SDS011;38656;54.260;20.822;2023-04-23T14:46:10;4.03;;;3.60;;